Time;durP1;ratioP1;P1;durP2;ratioP2;P2;SDS_P1;SDS_P2;PMS_P1;PMS_P2;Temp;Humidity;BMP_temperature;BMP_pressure;BME280_temperature;BME280_humidity;BME280_pressure;Samples;Min_cycle;Max_cycle;Signal;HPM_P1;HPM_P2
2022/02/23 00:01:35;;;;;;;10.13;3.17;;;;;;;;;;6231351;28;20451;-74
2022/02/23 00:04:39;;;;;;;12.18;3.47;;;;;;;;;;6231323;28;20424;-73
2022/02/23 00:07:42;;;;;;;10.65;3.20;;;;;;;;;;6220045;28;20046;-73
2022/02/23 00:10:45;;;;;;;12.63;2.95;;;;;;;;;;6236492;28;20070;-73
2022/02/23 00:13:51;;;;;;;8.20;2.72;;;;;;;;;;6220157;28;20061;-73
2022/02/23 00:16:55;;;;;;;10.20;2.90;;;;;;;;;;6235872;28;20042;-73
2022/02/23 00:19:59;;;;;;;7.10;3.00;;;;;;;;;;6236546;28;20385;-72
2022/02/23 00:23:02;;;;;;;11.57;3.53;;;;;;;;;;6236057;28;20053;-73
2022/02/23 00:26:06;;;;;;;12.70;2.85;;;;;;;;;;6235502;28;20042;-72
2022/02/23 00:29:09;;;;;;;8.25;3.40;;;;;;;;;;6236266;28;20439;-73
2022/02/23 00:32:14;;;;;;;9.45;2.63;;;;;;;;;;6235805;28;20078;-74
2022/02/23 00:35:17;;;;;;;12.70;3.40;;;;;;;;;;6220895;28;20049;-76
2022/02/23 00:38:22;;;;;;;13.27;2.75;;;;;;;;;;6235259;28;20038;-74
2022/02/23 00:41:25;;;;;;;10.07;2.83;;;;;;;;;;6236119;28;20049;-74
2022/02/23 00:44:29;;;;;;;9.13;3.00;;;;;;;;;;6235784;28;20042;-74
2022/02/23 00:47:33;;;;;;;12.57;3.47;;;;;;;;;;6234757;28;20415;-74
2022/02/23 00:50:37;;;;;;;10.57;3.50;;;;;;;;;;6236024;28;20087;-73
2022/02/23 00:53:40;;;;;;;10.90;2.55;;;;;;;;;;6220141;28;20058;-73
2022/02/23 00:56:43;;;;;;;15.77;4.00;;;;;;;;;;6235004;28;20057;-73
2022/02/23 00:59:46;;;;;;;10.25;3.28;;;;;;;;;;6235391;28;20052;-73
2022/02/23 01:02:51;;;;;;;11.00;3.65;;;;;;;;;;6235649;28;20053;-74
2022/02/23 01:05:54;;;;;;;13.05;3.65;;;;;;;;;;6235511;28;20042;-73
2022/02/23 01:08:58;;;;;;;10.65;3.08;;;;;;;;;;6234436;28;20111;-74
2022/02/23 01:12:02;;;;;;;11.50;3.35;;;;;;;;;;6220368;28;20045;-73
2022/02/23 01:15:06;;;;;;;6.82;3.03;;;;;;;;;;6235167;28;20054;-73
2022/02/23 01:18:10;;;;;;;10.55;3.00;;;;;;;;;;6233366;28;20038;-73
2022/02/23 01:21:14;;;;;;;12.98;3.25;;;;;;;;;;6233882;28;20042;-74
2022/02/23 01:24:18;;;;;;;8.40;3.00;;;;;;;;;;6232053;28;20041;-74
2022/02/23 01:27:22;;;;;;;8.88;3.33;;;;;;;;;;6231804;28;20046;-74
2022/02/23 01:30:25;;;;;;;7.47;3.20;;;;;;;;;;6215182;28;20038;-73
2022/02/23 01:33:30;;;;;;;11.80;3.40;;;;;;;;;;6231804;28;20103;-73
2022/02/23 01:36:33;;;;;;;8.90;3.00;;;;;;;;;;6232516;28;20045;-73
2022/02/23 01:39:36;;;;;;;11.93;2.95;;;;;;;;;;6233529;28;20532;-74
2022/02/23 01:42:42;;;;;;;10.00;3.05;;;;;;;;;;6235306;28;20045;-74
2022/02/23 01:45:45;;;;;;;11.02;3.35;;;;;;;;;;6234034;28;20049;-74
2022/02/23 01:48:50;;;;;;;8.48;3.17;;;;;;;;;;6218776;28;20056;-74
2022/02/23 01:51:54;;;;;;;9.05;3.38;;;;;;;;;;6234194;28;20046;-75
2022/02/23 01:54:57;;;;;;;10.05;3.47;;;;;;;;;;6234128;28;20049;-73
2022/02/23 01:58:00;;;;;;;10.82;3.40;;;;;;;;;;6233913;28;20409;-74
2022/02/23 02:01:03;;;;;;;7.63;2.90;;;;;;;;;;6233497;28;20060;-74
2022/02/23 02:04:09;;;;;;;10.38;3.13;;;;;;;;;;6217954;28;20049;-74
2022/02/23 02:07:12;;;;;;;6.60;2.60;;;;;;;;;;6233979;28;20042;-74
2022/02/23 02:10:16;;;;;;;8.00;2.67;;;;;;;;;;6232832;28;20393;-74
2022/02/23 02:13:19;;;;;;;9.88;3.33;;;;;;;;;;6234181;28;20459;-74
2022/02/23 02:16:22;;;;;;;9.90;3.13;;;;;;;;;;6233373;28;20053;-74
2022/02/23 02:19:27;;;;;;;10.10;2.97;;;;;;;;;;6231568;28;20064;-74
2022/02/23 02:22:31;;;;;;;8.85;2.80;;;;;;;;;;6217024;28;20050;-75
2022/02/23 02:25:34;;;;;;;8.90;3.30;;;;;;;;;;6233242;28;20484;-75
2022/02/23 02:28:38;;;;;;;10.73;2.88;;;;;;;;;;6232457;28;20042;-75
2022/02/23 02:31:41;;;;;;;9.88;2.92;;;;;;;;;;6232507;28;20046;-74
2022/02/23 02:34:45;;;;;;;11.02;3.33;;;;;;;;;;6233790;28;20128;-74
2022/02/23 02:37:50;;;;;;;12.43;3.55;;;;;;;;;;6232946;28;20073;-74
2022/02/23 02:40:55;;;;;;;11.63;3.63;;;;;;;;;;6231816;28;20049;-74
2022/02/23 02:43:58;;;;;;;10.77;3.17;;;;;;;;;;6230397;28;20045;-73
2022/02/23 02:47:02;;;;;;;15.27;4.88;;;;;;;;;;6229970;28;20053;-73
2022/02/23 02:50:06;;;;;;;11.65;3.55;;;;;;;;;;6230383;28;20057;-73
2022/02/23 02:53:10;;;;;;;14.23;4.15;;;;;;;;;;6230270;28;20065;-72
2022/02/23 02:56:13;;;;;;;10.10;3.30;;;;;;;;;;6231379;28;20057;-73
2022/02/23 02:59:17;;;;;;;13.15;3.70;;;;;;;;;;6217666;28;20042;-73
2022/02/23 03:02:20;;;;;;;11.85;4.55;;;;;;;;;;6231891;28;20045;-73
2022/02/23 03:05:23;;;;;;;19.20;4.05;;;;;;;;;;6233067;28;20054;-74
2022/02/23 03:08:28;;;;;;;15.43;3.70;;;;;;;;;;6232332;28;20489;-74
2022/02/23 03:11:32;;;;;;;16.70;4.07;;;;;;;;;;6231917;28;20053;-73
2022/02/23 03:14:35;;;;;;;12.20;3.50;;;;;;;;;;6232452;28;20053;-75
2022/02/23 03:17:38;;;;;;;13.48;4.18;;;;;;;;;;6232604;28;20049;-73
2022/02/23 03:20:41;;;;;;;9.93;3.60;;;;;;;;;;6232198;28;20494;-74
2022/02/23 03:23:48;;;;;;;10.13;3.40;;;;;;;;;;6215377;28;20046;-73
2022/02/23 03:26:51;;;;;;;13.07;4.90;;;;;;;;;;6232552;28;20396;-73
2022/02/23 03:29:55;;;;;;;9.80;4.05;;;;;;;;;;6231995;28;20053;-73
2022/02/23 03:32:58;;;;;;;13.18;3.97;;;;;;;;;;6231476;28;20499;-73
2022/02/23 03:36:02;;;;;;;10.50;3.15;;;;;;;;;;6232413;28;20650;-74
2022/02/23 03:39:06;;;;;;;14.68;3.58;;;;;;;;;;6231782;28;20053;-74
2022/02/23 03:42:11;;;;;;;11.35;3.53;;;;;;;;;;6231329;28;20041;-74
2022/02/23 03:45:14;;;;;;;10.00;3.38;;;;;;;;;;6231524;28;20314;-73
2022/02/23 03:48:18;;;;;;;12.30;3.65;;;;;;;;;;6231922;28;20041;-74
2022/02/23 03:51:21;;;;;;;9.77;3.10;;;;;;;;;;6231714;28;20061;-73
2022/02/23 03:54:26;;;;;;;12.20;3.67;;;;;;;;;;6230362;28;20417;-73
2022/02/23 03:57:29;;;;;;;11.77;3.38;;;;;;;;;;6232170;28;20057;-73
2022/02/23 04:00:33;;;;;;;11.25;3.15;;;;;;;;;;6231563;28;20042;-74
2022/02/23 04:03:37;;;;;;;12.63;3.08;;;;;;;;;;6231012;28;20049;-74
2022/02/23 04:06:40;;;;;;;13.13;3.20;;;;;;;;;;6231798;28;20038;-74
2022/02/23 04:09:48;;;;;;;10.95;3.15;;;;;;;;;;6231558;28;20552;-73
2022/02/23 04:12:51;;;;;;;8.52;2.95;;;;;;;;;;6231745;28;20061;-73
2022/02/23 04:15:54;;;;;;;9.30;2.90;;;;;;;;;;6214627;28;20484;-74
2022/02/23 04:18:59;;;;;;;10.38;3.30;;;;;;;;;;6232089;28;20058;-73
2022/02/23 04:22:02;;;;;;;8.25;2.90;;;;;;;;;;6231318;28;20046;-74
2022/02/23 04:25:07;;;;;;;12.35;3.15;;;;;;;;;;6230420;28;20050;-74
2022/02/23 04:28:10;;;;;;;13.07;3.58;;;;;;;;;;6231935;28;20412;-74
2022/02/23 04:31:13;;;;;;;6.53;3.03;;;;;;;;;;6231147;28;20096;-73
2022/02/23 04:34:19;;;;;;;;;;;;;;;;;;6231461;28;20116;-73
2022/02/23 04:37:23;;;;;;;9.13;2.90;;;;;;;;;;6215325;28;19967;-74
2022/02/23 04:40:28;;;;;;;6.40;2.78;;;;;;;;;;6215326;28;20057;-74
2022/02/23 04:43:33;;;;;;;6.43;2.50;;;;;;;;;;6231141;28;20412;-74
2022/02/23 04:46:36;;;;;;;8.45;2.83;;;;;;;;;;6230233;28;20299;-75
2022/02/23 04:49:39;;;;;;;8.32;2.83;;;;;;;;;;6231648;28;20487;-75
2022/02/23 04:52:43;;;;;;;10.98;2.33;;;;;;;;;;6232173;28;20069;-75
2022/02/23 04:55:48;;;;;;;7.35;2.65;;;;;;;;;;6234820;28;20080;-75
2022/02/23 04:58:52;;;;;;;4.97;2.13;;;;;;;;;;6235602;28;20267;-75
2022/02/23 05:01:56;;;;;;;9.50;2.60;;;;;;;;;;6236399;28;20050;-74
2022/02/23 05:04:59;;;;;;;8.15;2.10;;;;;;;;;;6235791;28;20458;-75
2022/02/23 05:08:03;;;;;;;9.32;2.50;;;;;;;;;;6234585;28;20088;-74
2022/02/23 05:11:10;;;;;;;6.68;1.73;;;;;;;;;;6235836;28;20444;-75
2022/02/23 05:14:14;;;;;;;6.57;1.73;;;;;;;;;;6235080;28;20050;-74
2022/02/23 05:17:17;;;;;;;6.13;2.42;;;;;;;;;;6234140;28;20052;-74
2022/02/23 05:20:20;;;;;;;6.90;2.17;;;;;;;;;;6235411;28;20484;-74
2022/02/23 05:23:24;;;;;;;5.63;1.88;;;;;;;;;;6235017;28;20409;-74
2022/02/23 05:26:29;;;;;;;4.53;1.65;;;;;;;;;;6234353;28;20583;-74
2022/02/23 05:29:32;;;;;;;8.20;1.90;;;;;;;;;;6234624;28;20473;-75
2022/02/23 05:32:36;;;;;;;4.80;2.10;;;;;;;;;;6234891;28;20045;-74
2022/02/23 05:35:41;;;;;;;12.32;2.15;;;;;;;;;;6234540;28;20500;-74
2022/02/23 05:38:44;;;;;;;8.43;2.05;;;;;;;;;;6217311;28;20053;-74
2022/02/23 05:41:49;;;;;;;7.57;2.42;;;;;;;;;;6234978;28;20061;-75
2022/02/23 05:44:53;;;;;;;11.05;2.75;;;;;;;;;;6234330;28;20049;-76
2022/02/23 05:47:57;;;;;;;8.75;2.35;;;;;;;;;;6233572;28;20042;-76
2022/02/23 05:51:03;;;;;;;11.52;2.63;;;;;;;;;;6218494;28;20477;-76
2022/02/23 05:54:07;;;;;;;11.10;2.63;;;;;;;;;;6234061;28;20061;-77
2022/02/23 05:57:13;;;;;;;10.48;2.38;;;;;;;;;;6218138;28;20065;-77
2022/02/23 06:00:21;;;;;;;10.02;2.78;;;;;;;;;;6233229;28;20038;-77
2022/02/23 06:03:25;;;;;;;13.63;2.80;;;;;;;;;;6234341;28;20057;-77
2022/02/23 06:06:28;;;;;;;7.53;2.60;;;;;;;;;;6217337;28;20492;-76
2022/02/23 06:09:32;;;;;;;10.18;2.65;;;;;;;;;;6232670;28;20058;-78
2022/02/23 06:12:37;;;;;;;7.57;2.80;;;;;;;;;;6218049;28;20041;-78
2022/02/23 06:15:41;;;;;;;7.43;2.45;;;;;;;;;;6217402;28;20475;-77
2022/02/23 06:18:47;;;;;;;11.07;2.88;;;;;;;;;;6218033;28;20060;-75
2022/02/23 06:21:51;;;;;;;5.97;2.75;;;;;;;;;;6217019;28;20049;-77
2022/02/23 06:24:56;;;;;;;8.18;2.80;;;;;;;;;;6233854;28;20129;-76
2022/02/23 06:28:09;;;;;;;10.02;2.75;;;;;;;;;;6216713;28;20096;-76
2022/02/23 06:31:14;;;;;;;10.60;3.00;;;;;;;;;;6232685;28;20137;-76
2022/02/23 06:34:17;;;;;;;7.28;2.83;;;;;;;;;;6233700;28;20054;-76
2022/02/23 06:37:21;;;;;;;11.02;3.20;;;;;;;;;;6216867;28;20176;-77
2022/02/23 06:40:26;;;;;;;9.90;3.50;;;;;;;;;;6216209;28;20451;-78
2022/02/23 06:43:32;;;;;;;10.13;4.28;;;;;;;;;;6217687;28;20038;-78
2022/02/23 06:46:36;;;;;;;10.27;3.50;;;;;;;;;;6233232;28;20034;-77
2022/02/23 06:49:40;;;;;;;10.60;2.88;;;;;;;;;;6232604;28;20045;-79
2022/02/23 06:52:46;;;;;;;11.57;3.05;;;;;;;;;;6231465;28;20041;-79
2022/02/23 06:55:54;;;;;;;9.23;3.03;;;;;;;;;;6216843;28;20050;-78
2022/02/23 06:59:00;;;;;;;9.25;3.33;;;;;;;;;;6216349;28;20452;-78
2022/02/23 07:02:06;;;;;;;10.52;3.58;;;;;;;;;;6231654;28;20481;-78
2022/02/23 07:05:15;;;;;;;10.60;3.25;;;;;;;;;;6216200;28;20048;-77
2022/02/23 07:08:23;;;;;;;6.97;2.95;;;;;;;;;;6216016;28;20535;-78
2022/02/23 07:11:27;;;;;;;9.25;3.20;;;;;;;;;;6232084;28;20060;-78
2022/02/23 07:14:31;;;;;;;10.93;3.28;;;;;;;;;;6230850;28;20045;-77
2022/02/23 07:17:35;;;;;;;10.60;3.35;;;;;;;;;;6232558;28;20493;-78
2022/02/23 07:20:38;;;;;;;8.50;3.53;;;;;;;;;;6215712;28;20054;-77
2022/02/23 07:23:41;;;;;;;15.18;4.18;;;;;;;;;;6231289;28;20041;-77
2022/02/23 07:26:47;;;;;;;12.52;3.80;;;;;;;;;;6232069;28;20042;-77
2022/02/23 07:29:52;;;;;;;12.38;4.38;;;;;;;;;;6232074;28;20042;-77
2022/02/23 07:32:57;;;;;;;12.80;3.50;;;;;;;;;;6214960;28;20076;-77
2022/02/23 07:36:01;;;;;;;10.63;3.00;;;;;;;;;;6231388;28;20046;-78
2022/02/23 07:39:07;;;;;;;14.27;3.90;;;;;;;;;;6232582;28;20049;-78
2022/02/23 07:42:11;;;;;;;9.50;3.03;;;;;;;;;;6216162;28;20049;-78
2022/02/23 07:45:36;;;;;;;15.85;3.60;;;;;;;;;;6214838;28;20052;-78
2022/02/23 07:48:41;;;;;;;6.88;3.55;;;;;;;;;;6231610;28;20050;-77
2022/02/23 07:51:45;;;;;;;15.60;3.70;;;;;;;;;;6232072;28;20096;-78
2022/02/23 07:54:50;;;;;;;8.10;3.40;;;;;;;;;;6231362;28;20288;-78
2022/02/23 07:57:54;;;;;;;13.98;3.80;;;;;;;;;;6214507;28;20046;-78
2022/02/23 08:01:01;;;;;;;10.05;3.50;;;;;;;;;;6216298;28;20050;-77
2022/02/23 08:04:07;;;;;;;13.02;3.53;;;;;;;;;;6231477;28;20048;-80
2022/02/23 08:07:10;;;;;;;12.38;3.92;;;;;;;;;;6198464;28;20042;-78
2022/02/23 08:10:17;;;;;;;13.65;4.00;;;;;;;;;;6231630;28;20045;-72
2022/02/23 08:13:23;;;;;;;;;;;;;;;;;;6232431;28;20042;-73
2022/02/23 08:19:51;;;;;;;15.27;4.45;;;;;;;;;;6228352;28;20053;-75
2022/02/23 08:22:55;;;;;;;14.15;4.43;;;;;;;;;;6231123;28;20196;-74
2022/02/23 08:25:58;;;;;;;11.30;4.07;;;;;;;;;;6231320;28;20041;-75
2022/02/23 08:29:01;;;;;;;20.50;4.93;;;;;;;;;;6234383;28;20049;-75
2022/02/23 08:32:08;;;;;;;9.40;4.15;;;;;;;;;;6234915;28;20392;-75
2022/02/23 08:35:11;;;;;;;11.27;4.75;;;;;;;;;;6236474;28;20049;-75
2022/02/23 08:38:15;;;;;;;15.13;5.88;;;;;;;;;;6233214;28;20061;-74
2022/02/23 08:41:23;;;;;;;15.50;5.10;;;;;;;;;;6232038;28;20546;-75
2022/02/23 08:44:46;;;;;;;8.70;3.80;;;;;;;;;;6233441;28;20045;-74
2022/02/23 08:47:51;;;;;;;9.93;3.53;;;;;;;;;;6233170;28;20042;-75
2022/02/23 08:50:56;;;;;;;10.20;3.17;;;;;;;;;;6232652;28;20046;-75
2022/02/23 08:54:01;;;;;;;7.75;3.20;;;;;;;;;;6235517;28;20516;-75
2022/02/23 08:57:05;;;;;;;6.95;2.72;;;;;;;;;;6235996;28;20049;-75
2022/02/23 09:00:08;;;;;;;7.28;3.03;;;;;;;;;;6235305;28;20046;-76
2022/02/23 09:03:13;;;;;;;15.50;5.85;;;;;;;;;;6234245;28;20356;-74
2022/02/23 09:06:18;;;;;;;8.50;3.50;;;;;;;;;;6235992;28;20045;-78
2022/02/23 09:09:22;;;;;;;6.82;3.13;;;;;;;;;;6220160;28;20054;-78
2022/02/23 09:12:25;;;;;;;18.13;7.90;;;;;;;;;;6234288;28;20053;-78
2022/02/23 09:15:28;;;;;;;7.22;3.80;;;;;;;;;;6235511;28;20543;-79
2022/02/23 09:18:32;;;;;;;4.75;2.40;;;;;;;;;;6235711;28;20053;-76
2022/02/23 09:21:36;;;;;;;4.60;2.60;;;;;;;;;;6218188;28;20420;-78
2022/02/23 09:24:40;;;;;;;5.13;2.17;;;;;;;;;;6234283;28;20136;-79
2022/02/23 09:27:44;;;;;;;4.63;2.50;;;;;;;;;;6235397;28;20099;-80
2022/02/23 09:30:48;;;;;;;5.47;2.55;;;;;;;;;;6218824;28;20141;-82
2022/02/23 09:33:57;;;;;;;8.98;3.75;;;;;;;;;;6234275;28;20042;-79
2022/02/23 09:37:00;;;;;;;6.82;2.28;;;;;;;;;;6235041;28;20050;-75
2022/02/23 09:40:05;;;;;;;4.40;1.60;;;;;;;;;;6234355;28;20042;-77
2022/02/23 09:43:09;;;;;;;6.90;2.15;;;;;;;;;;6234018;28;20398;-77
2022/02/23 09:46:18;;;;;;;3.88;2.03;;;;;;;;;;6217833;28;20052;-76
2022/02/23 09:49:22;;;;;;;6.07;1.95;;;;;;;;;;6235246;28;20124;-75
2022/02/23 09:52:27;;;;;;;6.88;2.67;;;;;;;;;;6219175;28;20046;-76
2022/02/23 09:55:32;;;;;;;4.82;1.55;;;;;;;;;;6233285;28;20042;-74
2022/02/23 09:58:36;;;;;;;4.25;1.55;;;;;;;;;;6234815;28;20034;-75
2022/02/23 10:01:40;;;;;;;5.95;2.08;;;;;;;;;;6234200;28;20425;-75
2022/02/23 10:04:45;;;;;;;3.78;1.90;;;;;;;;;;6233083;28;20068;-76
2022/02/23 10:07:51;;;;;;;4.50;1.85;;;;;;;;;;6233932;28;20041;-74
2022/02/23 10:10:55;;;;;;;4.63;1.80;;;;;;;;;;6234390;28;20046;-72
2022/02/23 10:13:59;;;;;;;3.95;1.80;;;;;;;;;;6233466;28;20042;-73
2022/02/23 10:17:02;;;;;;;5.53;2.17;;;;;;;;;;6232644;28;20042;-74
2022/02/23 10:20:19;;;;;;;6.47;1.90;;;;;;;;;;6234157;28;20064;-74
2022/02/23 10:23:24;;;;;;;8.52;2.05;;;;;;;;;;6233576;28;20480;-74
2022/02/23 10:26:30;;;;;;;7.88;2.42;;;;;;;;;;6233379;28;20092;-74
2022/02/23 10:29:35;;;;;;;3.78;2.28;;;;;;;;;;6233289;28;20042;-73
2022/02/23 10:32:38;;;;;;;4.93;1.27;;;;;;;;;;6233937;28;20048;-74
2022/02/23 10:35:51;;;;;;;4.35;1.50;;;;;;;;;;6232643;28;20045;-73
2022/02/23 10:39:01;;;;;;;9.77;4.18;;;;;;;;;;6233289;28;20076;-77
2022/02/23 10:42:05;;;;;;;2.85;1.10;;;;;;;;;;6217677;28;20057;-74
2022/02/23 10:45:10;;;;;;;5.90;1.63;;;;;;;;;;6218957;28;20062;-75
2022/02/23 10:48:13;;;;;;;5.57;1.50;;;;;;;;;;6217184;28;20053;-75
2022/02/23 10:51:23;;;;;;;5.38;1.42;;;;;;;;;;6231637;28;20042;-73
2022/02/23 10:54:31;;;;;;;4.43;1.50;;;;;;;;;;6233291;28;20049;-73
2022/02/23 10:57:42;;;;;;;6.18;1.27;;;;;;;;;;6232501;28;20489;-73
2022/02/23 11:00:49;;;;;;;7.45;2.00;;;;;;;;;;6231706;28;20049;-73
2022/02/23 11:03:53;;;;;;;8.80;1.50;;;;;;;;;;6233045;28;20041;-72
2022/02/23 11:07:00;;;;;;;5.88;1.70;;;;;;;;;;6232470;28;20042;-73
2022/02/23 11:10:03;;;;;;;6.68;1.40;;;;;;;;;;6231314;28;20049;-73
2022/02/23 11:13:06;;;;;;;5.95;1.38;;;;;;;;;;6231620;28;20485;-73
2022/02/23 11:16:10;;;;;;;5.40;1.20;;;;;;;;;;6232695;28;20049;-73
2022/02/23 11:19:16;;;;;;;6.38;1.58;;;;;;;;;;6231900;28;20512;-73
2022/02/23 11:22:21;;;;;;;10.77;1.80;;;;;;;;;;6231138;28;20401;-73
2022/02/23 11:25:24;;;;;;;6.22;2.35;;;;;;;;;;6231548;28;20531;-72
2022/02/23 11:28:29;;;;;;;4.88;1.20;;;;;;;;;;6229223;28;20049;-73
2022/02/23 11:31:39;;;;;;;5.57;1.50;;;;;;;;;;6228148;28;20063;-72
2022/02/23 11:34:42;;;;;;;7.28;1.60;;;;;;;;;;6229057;28;20056;-72
2022/02/23 11:37:54;;;;;;;6.75;1.63;;;;;;;;;;6230208;28;20053;-73
2022/02/23 11:41:00;;;;;;;6.32;1.30;;;;;;;;;;6229344;28;20049;-73
2022/02/23 11:44:12;;;;;;;5.95;1.10;;;;;;;;;;6230727;28;20054;-74
2022/02/23 11:47:17;;;;;;;6.28;1.38;;;;;;;;;;6232131;28;20049;-73
2022/02/23 11:50:23;;;;;;;4.63;1.33;;;;;;;;;;6231687;28;20117;-72
2022/02/23 11:53:38;;;;;;;3.78;1.30;;;;;;;;;;6230716;28;20058;-72
2022/02/23 11:56:47;;;;;;;3.83;1.20;;;;;;;;;;6230914;28;20492;-74
2022/02/23 12:03:31;;;;;;;3.03;1.17;;;;;;;;;;6552206;24;20386;-73
2022/02/23 12:06:49;;;;;;;5.78;1.30;;;;;;;;;;5969387;29;20055;-73
2022/02/23 12:10:10;;;;;;;9.90;3.88;;;;;;;;;;5952909;29;20058;-73
2022/02/23 12:13:34;;;;;;;7.07;1.20;;;;;;;;;;5970034;29;20088;-74
2022/02/23 12:16:47;;;;;;;5.75;1.30;;;;;;;;;;5982688;29;20078;-72
2022/02/23 12:19:53;;;;;;;;;;;;;;;;;;5968375;29;20047;-74
2022/02/23 12:23:02;;;;;;;3.92;1.10;;;;;;;;;;5969313;29;19935;-74
2022/02/23 12:26:29;;;;;;;6.28;1.60;;;;;;;;;;5983908;29;20055;-74
2022/02/23 12:29:35;;;;;;;5.47;1.33;;;;;;;;;;5970136;29;20062;-73
2022/02/23 12:32:39;;;;;;;9.05;1.63;;;;;;;;;;5969507;29;20054;-75
2022/02/23 12:35:45;;;;;;;4.63;1.30;;;;;;;;;;5968806;29;20060;-75
2022/02/23 12:38:49;;;;;;;5.57;1.20;;;;;;;;;;5967913;29;20494;-75
2022/02/23 12:41:53;;;;;;;8.07;2.00;;;;;;;;;;5967941;29;20078;-71
2022/02/23 12:45:02;;;;;;;5.57;1.20;;;;;;;;;;5965560;29;20051;-74
2022/02/23 12:48:30;;;;;;;5.05;1.50;;;;;;;;;;5967648;29;20082;-73
2022/02/23 12:51:33;;;;;;;6.30;1.50;;;;;;;;;;5969846;29;20104;-74
2022/02/23 12:54:37;;;;;;;4.88;1.40;;;;;;;;;;5970569;29;20124;-74
2022/02/23 12:57:43;;;;;;;3.75;1.20;;;;;;;;;;5966965;29;20043;-72
2022/02/23 13:00:50;;;;;;;5.03;1.38;;;;;;;;;;5968033;29;20053;-74
2022/02/23 13:03:54;;;;;;;4.18;1.10;;;;;;;;;;5968303;29;20433;-74
2022/02/23 13:07:01;;;;;;;4.47;1.30;;;;;;;;;;5969530;29;20494;-72
2022/02/23 13:10:07;;;;;;;7.10;1.65;;;;;;;;;;5970117;29;20513;-73
2022/02/23 13:13:10;;;;;;;4.18;1.02;;;;;;;;;;5967291;29;20050;-73
2022/02/23 13:16:16;;;;;;;3.63;1.60;;;;;;;;;;5965575;29;20055;-73
2022/02/23 13:19:20;;;;;;;6.30;1.50;;;;;;;;;;5964851;29;20470;-73
2022/02/23 13:22:30;;;;;;;3.95;1.13;;;;;;;;;;5965162;29;20050;-72
2022/02/23 13:25:33;;;;;;;7.00;1.27;;;;;;;;;;5966934;29;20065;-72
2022/02/23 13:28:38;;;;;;;5.55;1.85;;;;;;;;;;5965997;29;20525;-74
2022/02/23 13:31:47;;;;;;;4.68;1.27;;;;;;;;;;5967017;29;20051;-75
2022/02/23 13:34:51;;;;;;;5.18;1.30;;;;;;;;;;5965503;29;20046;-73
2022/02/23 13:38:03;;;;;;;5.97;1.30;;;;;;;;;;5966499;29;20201;-73
2022/02/23 13:41:14;;;;;;;5.00;1.25;;;;;;;;;;5964390;29;20057;-73
2022/02/23 13:44:18;;;;;;;4.93;1.20;;;;;;;;;;5966287;29;20171;-73
2022/02/23 13:47:23;;;;;;;8.35;1.55;;;;;;;;;;5966562;29;20043;-74
2022/02/23 13:50:29;;;;;;;4.72;1.25;;;;;;;;;;5965915;29;20051;-74
2022/02/23 13:53:34;;;;;;;9.43;3.17;;;;;;;;;;5965718;29;20058;-72
2022/02/23 13:56:42;;;;;;;4.13;1.17;;;;;;;;;;5961633;29;20134;-74
2022/02/23 13:59:46;;;;;;;6.95;1.25;;;;;;;;;;5963978;29;20381;-72
2022/02/23 14:02:53;;;;;;;3.35;1.10;;;;;;;;;;5960807;29;20054;-74
2022/02/23 14:05:58;;;;;;;5.32;1.73;;;;;;;;;;5962358;29;20058;-75
2022/02/23 14:09:03;;;;;;;6.97;1.52;;;;;;;;;;5963514;29;20042;-75
2022/02/23 14:12:11;;;;;;;8.02;1.60;;;;;;;;;;5964863;29;20051;-75
2022/02/23 14:15:19;;;;;;;3.33;1.10;;;;;;;;;;5964162;29;20104;-75
2022/02/23 14:18:27;;;;;;;5.22;1.50;;;;;;;;;;5965362;29;20047;-75
2022/02/23 14:21:29;;;;;;;;;;;;;;;;;;5966362;29;20173;-75
2022/02/23 14:24:35;;;;;;;8.35;1.40;;;;;;;;;;5963335;29;19925;-76
2022/02/23 14:27:42;;;;;;;6.93;1.42;;;;;;;;;;5964306;29;20054;-74
2022/02/23 14:31:02;;;;;;;6.18;1.38;;;;;;;;;;5964400;29;20115;-75
2022/02/23 14:34:17;;;;;;;5.32;1.70;;;;;;;;;;5965315;29;20059;-74
2022/02/23 14:37:21;;;;;;;6.85;1.27;;;;;;;;;;5963182;29;20062;-74
2022/02/23 14:40:25;;;;;;;3.60;1.23;;;;;;;;;;5965436;29;20453;-74
2022/02/23 14:43:28;;;;;;;5.60;1.88;;;;;;;;;;5965210;29;20051;-74
2022/02/23 14:46:33;;;;;;;5.45;1.30;;;;;;;;;;5963253;29;20047;-75
2022/02/23 14:49:40;;;;;;;6.65;1.50;;;;;;;;;;5963582;29;20050;-74
2022/02/23 14:52:44;;;;;;;8.67;1.67;;;;;;;;;;5963944;29;20054;-74
2022/02/23 14:55:48;;;;;;;6.70;1.42;;;;;;;;;;5964902;29;20303;-74
2022/02/23 14:58:51;;;;;;;25.05;12.52;;;;;;;;;;5964235;29;20047;-74
2022/02/23 15:01:55;;;;;;;7.85;1.88;;;;;;;;;;5963134;29;20104;-74
2022/02/23 15:05:00;;;;;;;5.30;1.40;;;;;;;;;;5961767;29;20138;-74
2022/02/23 15:08:04;;;;;;;3.90;1.30;;;;;;;;;;5962744;29;20058;-74
2022/02/23 15:11:08;;;;;;;8.35;1.95;;;;;;;;;;5962517;29;20055;-74
2022/02/23 15:14:13;;;;;;;7.30;1.90;;;;;;;;;;5961370;29;20403;-73
2022/02/23 15:17:16;;;;;;;6.93;1.43;;;;;;;;;;5961460;29;20123;-74
2022/02/23 15:20:24;;;;;;;10.02;1.67;;;;;;;;;;5961027;29;20057;-73
2022/02/23 15:23:27;;;;;;;7.00;1.98;;;;;;;;;;5946235;29;20046;-74
2022/02/23 15:26:33;;;;;;;;;;;;;;;;;;5963272;29;20058;-75
2022/02/23 15:29:37;;;;;;;7.35;1.75;;;;;;;;;;5961085;29;19931;-77
2022/02/23 15:32:41;;;;;;;4.22;1.63;;;;;;;;;;5960489;29;20119;-76
2022/02/23 15:35:46;;;;;;;4.78;1.60;;;;;;;;;;5960583;29;20312;-77
2022/02/23 15:38:50;;;;;;;7.32;1.80;;;;;;;;;;5960925;29;20463;-76
2022/02/23 15:41:55;;;;;;;4.72;2.00;;;;;;;;;;5945935;29;20430;-78
2022/02/23 15:45:02;;;;;;;4.97;1.70;;;;;;;;;;5961785;29;20055;-77
2022/02/23 15:48:08;;;;;;;5.40;1.70;;;;;;;;;;5961164;29;20197;-76
2022/02/23 15:51:14;;;;;;;7.32;1.85;;;;;;;;;;5960430;29;20133;-78
2022/02/23 15:54:21;;;;;;;8.98;2.22;;;;;;;;;;5960448;29;20051;-78
2022/02/23 15:57:24;;;;;;;3.88;1.60;;;;;;;;;;5960986;29;20111;-75
2022/02/23 16:00:27;;;;;;;5.22;1.73;;;;;;;;;;5960576;29;20061;-76
2022/02/23 16:03:35;;;;;;;6.50;1.45;;;;;;;;;;5959749;29;20244;-76
2022/02/23 16:06:49;;;;;;;9.38;3.25;;;;;;;;;;5945464;29;20050;-78
2022/02/23 16:09:53;;;;;;;7.07;2.45;;;;;;;;;;5959466;29;20089;-76
2022/02/23 16:12:58;;;;;;;5.30;1.98;;;;;;;;;;5958769;29;20058;-76
2022/02/23 16:16:01;;;;;;;6.13;1.70;;;;;;;;;;5958666;29;20047;-75
2022/02/23 16:19:06;;;;;;;7.20;2.10;;;;;;;;;;5959136;29;20211;-75
2022/02/23 16:22:12;;;;;;;7.63;2.40;;;;;;;;;;5959195;29;20051;-75
2022/02/23 16:25:16;;;;;;;8.20;1.80;;;;;;;;;;5958565;29;20132;-77
2022/02/23 16:28:24;;;;;;;5.13;1.75;;;;;;;;;;5959929;29;20059;-77
2022/02/23 16:31:27;;;;;;;7.07;2.22;;;;;;;;;;5960960;29;20533;-76
2022/02/23 16:34:38;;;;;;;6.00;1.80;;;;;;;;;;5960322;29;20066;-76
2022/02/23 16:37:43;;;;;;;7.80;2.25;;;;;;;;;;5959741;29;20046;-75
2022/02/23 16:40:47;;;;;;;7.65;2.50;;;;;;;;;;5958835;29;20047;-75
2022/02/23 16:43:50;;;;;;;5.95;2.20;;;;;;;;;;5960091;29;20255;-77
2022/02/23 16:46:54;;;;;;;8.90;2.33;;;;;;;;;;5958763;29;20055;-76
2022/02/23 16:49:57;;;;;;;5.80;1.88;;;;;;;;;;5946588;29;20058;-75
2022/02/23 16:53:03;;;;;;;8.40;2.08;;;;;;;;;;5963544;29;20054;-75
2022/02/23 16:56:06;;;;;;;7.72;2.08;;;;;;;;;;5964196;29;20506;-76
2022/02/23 16:59:12;;;;;;;17.17;5.00;;;;;;;;;;5962462;29;20047;-75
2022/02/23 17:02:15;;;;;;;10.98;3.85;;;;;;;;;;5965109;29;20047;-75
2022/02/23 17:05:19;;;;;;;11.63;2.72;;;;;;;;;;5941720;30;20051;-76
2022/02/23 17:08:25;;;;;;;11.63;2.83;;;;;;;;;;5940340;30;20185;-76
2022/02/23 17:11:29;;;;;;;9.40;3.03;;;;;;;;;;5939628;30;20063;-77
2022/02/23 17:14:32;;;;;;;8.75;3.25;;;;;;;;;;5941916;29;20084;-75
2022/02/23 17:17:36;;;;;;;8.75;2.80;;;;;;;;;;5940947;29;20059;-76
2022/02/23 17:20:40;;;;;;;8.15;2.50;;;;;;;;;;5924759;30;20086;-76
2022/02/23 17:23:45;;;;;;;7.03;2.35;;;;;;;;;;5925041;30;20419;-76
2022/02/23 17:26:51;;;;;;;8.60;2.55;;;;;;;;;;5941389;29;20058;-76
2022/02/23 17:29:57;;;;;;;9.23;2.90;;;;;;;;;;5939795;30;20062;-78
2022/02/23 17:33:04;;;;;;;12.15;3.47;;;;;;;;;;5938228;30;20050;-75
2022/02/23 17:36:08;;;;;;;12.45;3.67;;;;;;;;;;5940632;29;20058;-75
2022/02/23 17:39:13;;;;;;;19.65;3.97;;;;;;;;;;5939460;30;20128;-74
2022/02/23 17:42:18;;;;;;;15.07;5.67;;;;;;;;;;5940596;29;20055;-76
2022/02/23 17:45:27;;;;;;;13.98;3.90;;;;;;;;;;5939744;30;20141;-73
2022/02/23 17:48:31;;;;;;;9.70;2.90;;;;;;;;;;5937821;30;20051;-74
2022/02/23 17:51:37;;;;;;;11.45;3.78;;;;;;;;;;5940752;29;20412;-74
2022/02/23 17:54:42;;;;;;;11.43;3.35;;;;;;;;;;5939375;30;20376;-75
2022/02/23 17:57:46;;;;;;;11.55;3.70;;;;;;;;;;5941200;29;20075;-76
2022/02/23 18:00:50;;;;;;;10.98;3.03;;;;;;;;;;5937940;29;20055;-75
2022/02/23 18:03:53;;;;;;;14.23;3.42;;;;;;;;;;5949080;29;20058;-75
2022/02/23 18:06:56;;;;;;;9.20;3.03;;;;;;;;;;5960656;29;20100;-75
2022/02/23 18:10:07;;;;;;;10.57;3.20;;;;;;;;;;5960600;29;20566;-74
2022/02/23 18:13:11;;;;;;;8.05;2.85;;;;;;;;;;5958948;29;20430;-74
2022/02/23 18:16:14;;;;;;;9.48;2.83;;;;;;;;;;5945457;29;20070;-74
2022/02/23 18:19:18;;;;;;;7.90;2.88;;;;;;;;;;5961366;29;20119;-75
2022/02/23 18:22:21;;;;;;;13.70;3.90;;;;;;;;;;5961220;29;20055;-74
2022/02/23 18:25:26;;;;;;;12.27;3.42;;;;;;;;;;5962073;29;20061;-74
2022/02/23 18:28:29;;;;;;;14.10;3.20;;;;;;;;;;5961657;29;20073;-75
2022/02/23 18:31:33;;;;;;;10.75;3.20;;;;;;;;;;5946200;29;20058;-74
2022/02/23 18:34:40;;;;;;;17.98;4.03;;;;;;;;;;5960750;29;20067;-74